Ypsilanti, MI (48197)

10:42 AM EST on November 26, 2014 (GMT -0500)
Bagley Ave (roof top) | Change Station
CLOSE
Current Station
Personal Weather Station
Location: Ypsilanti, MI
Elevation: 778 ft
Nearby Weather Stations

Elev 778 ft 42.25 °N, 83.59 °W | Updated 15 minutes ago

Overcast
Overcast
31.8 °F
Feels Like 32 °F
N
0.0
Wind Variable Wind from SSE

Today
High -- | Low -- °F
--% Chance of Precip.
Yesterday
High -- | Low -- °F
Precip. -- in
7:38 AM 5:05 PM
Waxing Crescent, 20% visible
Pressure 30.17 in
Visibility 6.0 miles
Clouds Few 1900 ft
Scattered Clouds 3000 ft
Overcast 3800 ft
Windchill 32 °F
Dew Point 24 °F
Humidity 74%
Rainfall 0.00 in
Snow Depth Not available.
UV 1 out of 12
Pollen .10 out of 12
Air Quality Not available.
Flu Activity Not available.
SPECI KYIP 261523Z AUTO 15005KT 6SM HZ FEW019 SCT030 OVC038 01/M04 A3017 RMK AO2 T00061044 TSNO

More Conditions Fewer Conditions

Pressure 30.17 in
Visibility 6.0 miles
Clouds Few 1900 ft
Scattered Clouds 3000 ft
Overcast 3800 ft
Windchill 32 °F
Dew Point 24 °F
Humidity 74%
Rainfall 0.00 in
Snow Depth Not available.
UV 1 out of 12
Pollen .10 out of 12
Air Quality Not available.
Flu Activity Not available.
SPECI KYIP 261523Z AUTO 15005KT 6SM HZ FEW019 SCT030 OVC038 01/M04 A3017 RMK AO2 T00061044 TSNO

More Conditions Fewer Conditions

10-Day Weather Forecast

Almanac

Astronomy

Nov. 26, 2014 Rise Set
Actual Time
Civil Twilight
Nautical Twilight
Astronomical Twilight
Moon
Length of Visible Light
Length of Day
Tomorrow will be .
, % of the Moon is Illuminated

Today's Extremes

State Highs State Lows

Community

WunderPhotos

Upload Photos

1,773,773 photos uploaded!

WunderBlogs® & News

Nearby

Air Quality

  Air Quality AQ Index Pollutant
Not available.

Snow Depth

Station Depth Elevation

Earthquake Activity

City Distance Mag. Time & Date
Minimum magnitude displayed is 2.5.

Coastal Water Temperatures

Place Temperature

Nearby Weather Stations